sensor_id;sensor_type;location;lat;lon;timestamp;P1;durP1;ratioP1;P2;durP2;ratioP2
54959;SDS011;40860;51.710;8.736;2023-03-31T00:01:18;4.15;;;1.10;;
54959;SDS011;40860;51.710;8.736;2023-03-31T00:10:34;4.60;;;1.30;;
54959;SDS011;40860;51.710;8.736;2023-03-31T00:14:57;5.20;;;1.30;;
54959;SDS011;40860;51.710;8.736;2023-03-31T00:19:09;5.20;;;1.25;;
54959;SDS011;40860;51.710;8.736;2023-03-31T00:23:27;5.03;;;1.38;;
54959;SDS011;40860;51.710;8.736;2023-03-31T00:27:39;4.53;;;1.27;;
54959;SDS011;40860;51.710;8.736;2023-03-31T00:31:58;3.92;;;1.30;;
54959;SDS011;40860;51.710;8.736;2023-03-31T00:36:09;4.20;;;1.27;;
54959;SDS011;40860;51.710;8.736;2023-03-31T00:49:35;3.80;;;1.20;;
54959;SDS011;40860;51.710;8.736;2023-03-31T00:54:02;3.53;;;1.25;;
54959;SDS011;40860;51.710;8.736;2023-03-31T00:58:21;5.47;;;1.52;;
54959;SDS011;40860;51.710;8.736;2023-03-31T01:02:37;5.78;;;1.52;;
54959;SDS011;40860;51.710;8.736;2023-03-31T01:06:47;7.95;;;1.75;;
54959;SDS011;40860;51.710;8.736;2023-03-31T01:11:05;5.60;;;1.38;;
54959;SDS011;40860;51.710;8.736;2023-03-31T01:15:20;7.72;;;2.00;;
54959;SDS011;40860;51.710;8.736;2023-03-31T01:19:36;6.30;;;1.60;;
54959;SDS011;40860;51.710;8.736;2023-03-31T01:29:07;5.28;;;1.25;;
54959;SDS011;40860;51.710;8.736;2023-03-31T01:38:13;6.63;;;1.60;;
54959;SDS011;40860;51.710;8.736;2023-03-31T01:42:49;4.50;;;1.48;;
54959;SDS011;40860;51.710;8.736;2023-03-31T01:47:05;3.17;;;1.40;;
54959;SDS011;40860;51.710;8.736;2023-03-31T01:51:27;4.90;;;1.45;;
54959;SDS011;40860;51.710;8.736;2023-03-31T01:55:41;3.47;;;1.15;;
54959;SDS011;40860;51.710;8.736;2023-03-31T01:59:54;4.22;;;1.27;;
54959;SDS011;40860;51.710;8.736;2023-03-31T02:04:15;5.15;;;1.48;;
54959;SDS011;40860;51.710;8.736;2023-03-31T02:08:28;3.17;;;0.98;;
54959;SDS011;40860;51.710;8.736;2023-03-31T02:12:41;4.68;;;1.17;;
54959;SDS011;40860;51.710;8.736;2023-03-31T02:17:02;6.50;;;1.92;;
54959;SDS011;40860;51.710;8.736;2023-03-31T02:21:23;5.63;;;1.30;;
54959;SDS011;40860;51.710;8.736;2023-03-31T02:25:35;5.68;;;1.40;;
54959;SDS011;40860;51.710;8.736;2023-03-31T02:29:47;6.80;;;1.92;;
54959;SDS011;40860;51.710;8.736;2023-03-31T02:34:13;4.35;;;1.52;;
54959;SDS011;40860;51.710;8.736;2023-03-31T02:38:32;4.32;;;1.15;;
54959;SDS011;40860;51.710;8.736;2023-03-31T02:42:56;4.82;;;1.23;;
54959;SDS011;40860;51.710;8.736;2023-03-31T02:47:09;7.80;;;1.48;;
54959;SDS011;40860;51.710;8.736;2023-03-31T02:51:49;3.92;;;1.20;;
54959;SDS011;40860;51.710;8.736;2023-03-31T02:56:46;5.50;;;1.48;;
54959;SDS011;40860;51.710;8.736;2023-03-31T03:06:00;5.25;;;1.52;;
54959;SDS011;40860;51.710;8.736;2023-03-31T03:10:33;5.22;;;1.38;;
54959;SDS011;40860;51.710;8.736;2023-03-31T03:14:43;4.03;;;1.45;;
54959;SDS011;40860;51.710;8.736;2023-03-31T03:18:56;5.07;;;1.30;;
54959;SDS011;40860;51.710;8.736;2023-03-31T03:22:59;3.42;;;1.02;;
54959;SDS011;40860;51.710;8.736;2023-03-31T03:27:03;6.07;;;1.45;;
54959;SDS011;40860;51.710;8.736;2023-03-31T03:31:06;2.33;;;1.00;;
54959;SDS011;40860;51.710;8.736;2023-03-31T03:35:09;6.60;;;1.30;;
54959;SDS011;40860;51.710;8.736;2023-03-31T03:39:12;4.43;;;1.10;;
54959;SDS011;40860;51.710;8.736;2023-03-31T03:43:16;3.22;;;0.93;;
54959;SDS011;40860;51.710;8.736;2023-03-31T03:47:19;2.92;;;1.23;;
54959;SDS011;40860;51.710;8.736;2023-03-31T03:51:22;3.63;;;1.05;;
54959;SDS011;40860;51.710;8.736;2023-03-31T03:55:25;4.97;;;1.52;;
54959;SDS011;40860;51.710;8.736;2023-03-31T03:59:30;4.15;;;1.40;;
54959;SDS011;40860;51.710;8.736;2023-03-31T04:03:33;6.25;;;1.67;;
54959;SDS011;40860;51.710;8.736;2023-03-31T04:07:36;4.90;;;1.75;;
54959;SDS011;40860;51.710;8.736;2023-03-31T04:11:39;7.97;;;1.70;;
54959;SDS011;40860;51.710;8.736;2023-03-31T04:15:44;6.72;;;1.80;;
54959;SDS011;40860;51.710;8.736;2023-03-31T04:19:48;4.28;;;1.55;;
54959;SDS011;40860;51.710;8.736;2023-03-31T04:23:53;4.38;;;1.40;;
54959;SDS011;40860;51.710;8.736;2023-03-31T04:28:02;4.78;;;1.20;;
54959;SDS011;40860;51.710;8.736;2023-03-31T04:32:08;7.40;;;1.52;;
54959;SDS011;40860;51.710;8.736;2023-03-31T04:36:15;6.88;;;1.38;;
54959;SDS011;40860;51.710;8.736;2023-03-31T04:40:19;4.82;;;1.40;;
54959;SDS011;40860;51.710;8.736;2023-03-31T04:44:21;7.38;;;1.70;;
54959;SDS011;40860;51.710;8.736;2023-03-31T04:48:26;4.18;;;1.40;;
54959;SDS011;40860;51.710;8.736;2023-03-31T04:52:29;6.47;;;1.75;;
54959;SDS011;40860;51.710;8.736;2023-03-31T04:56:31;3.75;;;1.35;;
54959;SDS011;40860;51.710;8.736;2023-03-31T05:00:34;8.88;;;2.35;;
54959;SDS011;40860;51.710;8.736;2023-03-31T05:04:38;5.32;;;1.77;;
54959;SDS011;40860;51.710;8.736;2023-03-31T05:08:41;7.20;;;2.05;;
54959;SDS011;40860;51.710;8.736;2023-03-31T05:12:44;4.00;;;2.05;;
54959;SDS011;40860;51.710;8.736;2023-03-31T05:16:47;12.18;;;2.67;;
54959;SDS011;40860;51.710;8.736;2023-03-31T05:20:52;3.67;;;1.85;;
54959;SDS011;40860;51.710;8.736;2023-03-31T05:24:55;4.43;;;1.70;;
54959;SDS011;40860;51.710;8.736;2023-03-31T05:28:58;7.25;;;1.73;;
54959;SDS011;40860;51.710;8.736;2023-03-31T05:33:01;6.18;;;2.08;;
54959;SDS011;40860;51.710;8.736;2023-03-31T05:37:05;7.85;;;2.63;;
54959;SDS011;40860;51.710;8.736;2023-03-31T05:41:08;5.75;;;2.00;;
54959;SDS011;40860;51.710;8.736;2023-03-31T05:45:12;7.53;;;2.00;;
54959;SDS011;40860;51.710;8.736;2023-03-31T05:49:15;7.35;;;2.20;;
54959;SDS011;40860;51.710;8.736;2023-03-31T05:53:19;6.43;;;2.00;;
54959;SDS011;40860;51.710;8.736;2023-03-31T05:57:22;5.13;;;1.77;;
54959;SDS011;40860;51.710;8.736;2023-03-31T06:01:24;5.15;;;1.85;;
54959;SDS011;40860;51.710;8.736;2023-03-31T06:05:28;3.72;;;1.70;;
54959;SDS011;40860;51.710;8.736;2023-03-31T06:09:32;8.48;;;1.88;;
54959;SDS011;40860;51.710;8.736;2023-03-31T06:13:35;8.32;;;2.58;;
54959;SDS011;40860;51.710;8.736;2023-03-31T06:17:39;6.47;;;2.63;;
54959;SDS011;40860;51.710;8.736;2023-03-31T06:21:42;5.20;;;1.80;;
54959;SDS011;40860;51.710;8.736;2023-03-31T06:25:46;4.70;;;1.48;;
54959;SDS011;40860;51.710;8.736;2023-03-31T06:29:53;6.60;;;1.50;;
54959;SDS011;40860;51.710;8.736;2023-03-31T06:33:56;3.72;;;1.80;;
54959;SDS011;40860;51.710;8.736;2023-03-31T06:37:58;5.30;;;1.80;;
54959;SDS011;40860;51.710;8.736;2023-03-31T06:42:03;3.75;;;1.52;;
54959;SDS011;40860;51.710;8.736;2023-03-31T06:46:14;4.88;;;1.60;;
54959;SDS011;40860;51.710;8.736;2023-03-31T06:50:17;3.88;;;1.60;;
54959;SDS011;40860;51.710;8.736;2023-03-31T06:54:20;3.53;;;1.60;;
54959;SDS011;40860;51.710;8.736;2023-03-31T06:58:24;2.53;;;1.45;;
54959;SDS011;40860;51.710;8.736;2023-03-31T07:02:30;3.00;;;1.33;;
54959;SDS011;40860;51.710;8.736;2023-03-31T07:06:33;5.07;;;1.63;;
54959;SDS011;40860;51.710;8.736;2023-03-31T07:10:36;3.65;;;1.33;;
54959;SDS011;40860;51.710;8.736;2023-03-31T07:14:41;3.15;;;1.13;;
54959;SDS011;40860;51.710;8.736;2023-03-31T07:18:43;3.80;;;1.35;;
54959;SDS011;40860;51.710;8.736;2023-03-31T07:22:47;2.67;;;1.02;;
54959;SDS011;40860;51.710;8.736;2023-03-31T07:26:50;3.22;;;1.20;;
54959;SDS011;40860;51.710;8.736;2023-03-31T07:30:54;3.03;;;1.27;;
54959;SDS011;40860;51.710;8.736;2023-03-31T07:34:56;3.10;;;1.38;;
54959;SDS011;40860;51.710;8.736;2023-03-31T07:38:59;3.00;;;2.20;;
54959;SDS011;40860;51.710;8.736;2023-03-31T07:43:02;6.32;;;1.45;;
54959;SDS011;40860;51.710;8.736;2023-03-31T07:47:07;3.75;;;1.52;;
54959;SDS011;40860;51.710;8.736;2023-03-31T07:51:10;2.92;;;1.02;;
54959;SDS011;40860;51.710;8.736;2023-03-31T07:55:13;2.05;;;1.02;;
54959;SDS011;40860;51.710;8.736;2023-03-31T07:59:16;2.33;;;1.00;;
54959;SDS011;40860;51.710;8.736;2023-03-31T08:03:21;2.28;;;0.80;;
54959;SDS011;40860;51.710;8.736;2023-03-31T08:07:23;4.15;;;1.13;;
54959;SDS011;40860;51.710;8.736;2023-03-31T08:11:27;2.05;;;0.90;;
54959;SDS011;40860;51.710;8.736;2023-03-31T08:15:30;2.17;;;0.88;;
54959;SDS011;40860;51.710;8.736;2023-03-31T08:19:34;2.75;;;0.77;;
54959;SDS011;40860;51.710;8.736;2023-03-31T08:23:37;2.50;;;1.00;;
54959;SDS011;40860;51.710;8.736;2023-03-31T08:27:39;3.25;;;0.88;;
54959;SDS011;40860;51.710;8.736;2023-03-31T08:31:42;3.13;;;0.80;;
54959;SDS011;40860;51.710;8.736;2023-03-31T08:35:47;2.67;;;0.77;;
54959;SDS011;40860;51.710;8.736;2023-03-31T08:39:50;3.35;;;0.93;;
54959;SDS011;40860;51.710;8.736;2023-03-31T08:43:53;0.93;;;0.45;;
54959;SDS011;40860;51.710;8.736;2023-03-31T08:47:59;2.40;;;0.60;;
54959;SDS011;40860;51.710;8.736;2023-03-31T08:52:10;2.08;;;0.70;;
54959;SDS011;40860;51.710;8.736;2023-03-31T08:56:18;2.25;;;0.50;;
54959;SDS011;40860;51.710;8.736;2023-03-31T09:00:23;1.90;;;0.60;;
54959;SDS011;40860;51.710;8.736;2023-03-31T09:04:45;0.57;;;0.40;;
54959;SDS011;40860;51.710;8.736;2023-03-31T09:08:56;5.43;;;1.83;;
54959;SDS011;40860;51.710;8.736;2023-03-31T09:13:05;2.75;;;0.60;;
54959;SDS011;40860;51.710;8.736;2023-03-31T09:17:20;1.77;;;0.63;;
54959;SDS011;40860;51.710;8.736;2023-03-31T09:21:29;2.35;;;0.60;;
54959;SDS011;40860;51.710;8.736;2023-03-31T09:25:37;3.17;;;0.80;;
54959;SDS011;40860;51.710;8.736;2023-03-31T09:29:42;2.83;;;0.68;;
54959;SDS011;40860;51.710;8.736;2023-03-31T09:33:50;1.80;;;0.70;;
54959;SDS011;40860;51.710;8.736;2023-03-31T09:37:57;0.95;;;0.75;;
54959;SDS011;40860;51.710;8.736;2023-03-31T09:42:04;1.23;;;0.63;;
54959;SDS011;40860;51.710;8.736;2023-03-31T09:46:12;2.00;;;0.60;;
54959;SDS011;40860;51.710;8.736;2023-03-31T09:50:18;1.65;;;0.60;;
54959;SDS011;40860;51.710;8.736;2023-03-31T09:54:26;1.58;;;0.60;;
54959;SDS011;40860;51.710;8.736;2023-03-31T09:58:36;1.67;;;0.73;;
54959;SDS011;40860;51.710;8.736;2023-03-31T10:02:42;3.15;;;0.90;;
54959;SDS011;40860;51.710;8.736;2023-03-31T10:06:48;1.95;;;0.93;;
54959;SDS011;40860;51.710;8.736;2023-03-31T10:10:54;2.63;;;0.77;;
54959;SDS011;40860;51.710;8.736;2023-03-31T10:15:14;3.97;;;1.08;;
54959;SDS011;40860;51.710;8.736;2023-03-31T10:19:21;3.22;;;1.02;;
54959;SDS011;40860;51.710;8.736;2023-03-31T10:23:26;3.35;;;1.38;;
54959;SDS011;40860;51.710;8.736;2023-03-31T10:27:31;5.95;;;1.58;;
54959;SDS011;40860;51.710;8.736;2023-03-31T10:31:36;3.85;;;1.38;;
54959;SDS011;40860;51.710;8.736;2023-03-31T10:35:40;4.68;;;1.42;;
54959;SDS011;40860;51.710;8.736;2023-03-31T10:39:43;4.30;;;1.25;;
54959;SDS011;40860;51.710;8.736;2023-03-31T10:43:48;5.63;;;1.70;;
54959;SDS011;40860;51.710;8.736;2023-03-31T10:47:54;5.43;;;1.40;;
54959;SDS011;40860;51.710;8.736;2023-03-31T10:51:58;4.78;;;1.50;;
54959;SDS011;40860;51.710;8.736;2023-03-31T10:56:08;4.03;;;1.63;;
54959;SDS011;40860;51.710;8.736;2023-03-31T11:00:36;3.08;;;1.00;;
54959;SDS011;40860;51.710;8.736;2023-03-31T11:04:56;3.80;;;1.27;;
54959;SDS011;40860;51.710;8.736;2023-03-31T11:09:12;5.25;;;1.58;;
54959;SDS011;40860;51.710;8.736;2023-03-31T11:13:25;3.05;;;1.30;;
54959;SDS011;40860;51.710;8.736;2023-03-31T11:17:36;4.40;;;1.60;;
54959;SDS011;40860;51.710;8.736;2023-03-31T11:21:59;4.45;;;1.50;;
54959;SDS011;40860;51.710;8.736;2023-03-31T11:26:08;4.13;;;1.42;;
54959;SDS011;40860;51.710;8.736;2023-03-31T11:30:14;2.67;;;1.60;;
54959;SDS011;40860;51.710;8.736;2023-03-31T11:34:36;4.68;;;1.95;;
54959;SDS011;40860;51.710;8.736;2023-03-31T11:39:01;3.97;;;1.80;;
54959;SDS011;40860;51.710;8.736;2023-03-31T11:43:23;5.30;;;2.03;;
54959;SDS011;40860;51.710;8.736;2023-03-31T11:47:33;4.55;;;1.85;;
54959;SDS011;40860;51.710;8.736;2023-03-31T11:51:43;4.10;;;1.80;;
54959;SDS011;40860;51.710;8.736;2023-03-31T11:56:00;6.93;;;2.05;;
54959;SDS011;40860;51.710;8.736;2023-03-31T12:00:10;3.65;;;1.80;;
54959;SDS011;40860;51.710;8.736;2023-03-31T12:04:27;4.63;;;2.03;;
54959;SDS011;40860;51.710;8.736;2023-03-31T12:08:35;7.40;;;2.30;;
54959;SDS011;40860;51.710;8.736;2023-03-31T12:12:50;6.72;;;2.30;;
54959;SDS011;40860;51.710;8.736;2023-03-31T12:17:01;6.72;;;2.60;;
54959;SDS011;40860;51.710;8.736;2023-03-31T12:21:12;6.47;;;2.40;;
54959;SDS011;40860;51.710;8.736;2023-03-31T12:25:18;4.93;;;2.38;;
54959;SDS011;40860;51.710;8.736;2023-03-31T12:29:30;6.47;;;2.60;;
54959;SDS011;40860;51.710;8.736;2023-03-31T12:33:36;2.28;;;0.70;;
54959;SDS011;40860;51.710;8.736;2023-03-31T12:37:54;1.55;;;0.60;;
54959;SDS011;40860;51.710;8.736;2023-03-31T12:46:47;1.90;;;0.80;;
54959;SDS011;40860;51.710;8.736;2023-03-31T12:51:18;2.05;;;1.00;;
54959;SDS011;40860;51.710;8.736;2023-03-31T12:55:31;2.53;;;1.00;;
54959;SDS011;40860;51.710;8.736;2023-03-31T12:59:37;2.00;;;1.00;;
54959;SDS011;40860;51.710;8.736;2023-03-31T13:03:44;1.38;;;0.80;;
54959;SDS011;40860;51.710;8.736;2023-03-31T13:07:49;2.25;;;1.02;;
54959;SDS011;40860;51.710;8.736;2023-03-31T13:11:52;5.18;;;1.45;;
54959;SDS011;40860;51.710;8.736;2023-03-31T13:15:55;4.88;;;2.03;;
54959;SDS011;40860;51.710;8.736;2023-03-31T13:20:23;4.28;;;1.10;;
54959;SDS011;40860;51.710;8.736;2023-03-31T13:24:33;2.83;;;0.68;;
54959;SDS011;40860;51.710;8.736;2023-03-31T13:28:37;0.80;;;0.55;;
54959;SDS011;40860;51.710;8.736;2023-03-31T13:32:44;2.45;;;0.95;;
54959;SDS011;40860;51.710;8.736;2023-03-31T13:37:13;2.38;;;1.00;;
54959;SDS011;40860;51.710;8.736;2023-03-31T13:41:29;1.42;;;0.82;;
54959;SDS011;40860;51.710;8.736;2023-03-31T13:45:53;2.33;;;0.30;;
54959;SDS011;40860;51.710;8.736;2023-03-31T13:50:15;3.13;;;0.60;;
54959;SDS011;40860;51.710;8.736;2023-03-31T13:54:43;1.08;;;0.57;;
54959;SDS011;40860;51.710;8.736;2023-03-31T13:59:21;0.70;;;0.50;;
54959;SDS011;40860;51.710;8.736;2023-03-31T14:03:51;3.95;;;0.75;;
54959;SDS011;40860;51.710;8.736;2023-03-31T14:08:04;1.10;;;0.82;;
54959;SDS011;40860;51.710;8.736;2023-03-31T14:12:21;1.52;;;0.60;;
54959;SDS011;40860;51.710;8.736;2023-03-31T14:16:36;1.55;;;0.70;;
54959;SDS011;40860;51.710;8.736;2023-03-31T14:20:44;2.55;;;0.70;;
54959;SDS011;40860;51.710;8.736;2023-03-31T14:24:54;2.97;;;0.88;;
54959;SDS011;40860;51.710;8.736;2023-03-31T14:29:10;1.10;;;0.90;;
54959;SDS011;40860;51.710;8.736;2023-03-31T14:33:23;0.80;;;0.52;;
54959;SDS011;40860;51.710;8.736;2023-03-31T14:37:34;3.28;;;0.75;;
54959;SDS011;40860;51.710;8.736;2023-03-31T14:41:39;1.98;;;0.80;;
54959;SDS011;40860;51.710;8.736;2023-03-31T14:45:46;4.30;;;1.17;;
54959;SDS011;40860;51.710;8.736;2023-03-31T14:49:59;2.70;;;0.80;;
54959;SDS011;40860;51.710;8.736;2023-03-31T14:54:13;2.60;;;0.80;;
54959;SDS011;40860;51.710;8.736;2023-03-31T14:58:20;1.70;;;1.08;;
54959;SDS011;40860;51.710;8.736;2023-03-31T15:02:31;3.53;;;1.33;;
54959;SDS011;40860;51.710;8.736;2023-03-31T15:06:35;2.47;;;1.00;;
54959;SDS011;40860;51.710;8.736;2023-03-31T15:10:41;5.28;;;1.40;;
54959;SDS011;40860;51.710;8.736;2023-03-31T15:14:48;6.07;;;1.63;;
54959;SDS011;40860;51.710;8.736;2023-03-31T15:18:53;5.95;;;1.65;;
54959;SDS011;40860;51.710;8.736;2023-03-31T15:22:57;4.75;;;1.67;;
54959;SDS011;40860;51.710;8.736;2023-03-31T15:27:02;5.05;;;1.40;;
54959;SDS011;40860;51.710;8.736;2023-03-31T15:31:08;4.55;;;2.10;;
54959;SDS011;40860;51.710;8.736;2023-03-31T15:35:18;6.97;;;1.80;;
54959;SDS011;40860;51.710;8.736;2023-03-31T15:39:23;6.70;;;2.00;;
54959;SDS011;40860;51.710;8.736;2023-03-31T15:43:28;6.70;;;2.03;;
54959;SDS011;40860;51.710;8.736;2023-03-31T15:47:31;5.13;;;1.77;;
54959;SDS011;40860;51.710;8.736;2023-03-31T15:51:40;3.78;;;1.38;;
54959;SDS011;40860;51.710;8.736;2023-03-31T15:55:43;5.50;;;1.40;;
54959;SDS011;40860;51.710;8.736;2023-03-31T15:59:46;4.60;;;1.42;;
54959;SDS011;40860;51.710;8.736;2023-03-31T16:04:16;2.17;;;1.23;;
54959;SDS011;40860;51.710;8.736;2023-03-31T16:08:22;4.55;;;1.17;;
54959;SDS011;40860;51.710;8.736;2023-03-31T16:12:29;5.53;;;1.50;;
54959;SDS011;40860;51.710;8.736;2023-03-31T16:16:34;5.50;;;1.90;;
54959;SDS011;40860;51.710;8.736;2023-03-31T16:20:38;4.72;;;1.58;;
54959;SDS011;40860;51.710;8.736;2023-03-31T16:24:47;3.45;;;1.38;;
54959;SDS011;40860;51.710;8.736;2023-03-31T16:28:52;3.38;;;1.40;;
54959;SDS011;40860;51.710;8.736;2023-03-31T16:32:58;5.03;;;1.33;;
54959;SDS011;40860;51.710;8.736;2023-03-31T16:37:03;4.25;;;1.38;;
54959;SDS011;40860;51.710;8.736;2023-03-31T16:41:13;3.30;;;1.13;;
54959;SDS011;40860;51.710;8.736;2023-03-31T16:45:17;4.53;;;1.60;;
54959;SDS011;40860;51.710;8.736;2023-03-31T16:49:21;6.65;;;1.45;;
54959;SDS011;40860;51.710;8.736;2023-03-31T16:53:24;3.85;;;1.17;;
54959;SDS011;40860;51.710;8.736;2023-03-31T16:57:31;2.83;;;1.40;;
54959;SDS011;40860;51.710;8.736;2023-03-31T17:01:34;4.95;;;1.40;;
54959;SDS011;40860;51.710;8.736;2023-03-31T17:05:37;3.50;;;0.90;;
54959;SDS011;40860;51.710;8.736;2023-03-31T17:09:40;3.95;;;1.10;;
54959;SDS011;40860;51.710;8.736;2023-03-31T17:13:44;3.88;;;1.38;;
54959;SDS011;40860;51.710;8.736;2023-03-31T17:17:48;4.38;;;1.88;;
54959;SDS011;40860;51.710;8.736;2023-03-31T17:21:55;3.88;;;1.48;;
54959;SDS011;40860;51.710;8.736;2023-03-31T17:26:02;4.38;;;2.08;;
54959;SDS011;40860;51.710;8.736;2023-03-31T17:30:27;4.95;;;1.33;;
54959;SDS011;40860;51.710;8.736;2023-03-31T17:34:31;3.00;;;0.88;;
54959;SDS011;40860;51.710;8.736;2023-03-31T17:38:34;2.78;;;1.00;;
54959;SDS011;40860;51.710;8.736;2023-03-31T17:42:38;2.85;;;1.25;;
54959;SDS011;40860;51.710;8.736;2023-03-31T17:46:42;4.85;;;1.55;;
54959;SDS011;40860;51.710;8.736;2023-03-31T17:50:45;3.85;;;1.17;;
54959;SDS011;40860;51.710;8.736;2023-03-31T17:54:51;3.60;;;1.00;;
54959;SDS011;40860;51.710;8.736;2023-03-31T17:58:59;4.82;;;1.10;;
54959;SDS011;40860;51.710;8.736;2023-03-31T18:03:04;3.35;;;0.82;;
54959;SDS011;40860;51.710;8.736;2023-03-31T18:07:33;2.95;;;0.70;;
54959;SDS011;40860;51.710;8.736;2023-03-31T18:11:37;2.55;;;0.63;;
54959;SDS011;40860;51.710;8.736;2023-03-31T18:15:44;0.90;;;0.68;;
54959;SDS011;40860;51.710;8.736;2023-03-31T18:19:52;1.65;;;0.70;;
54959;SDS011;40860;51.710;8.736;2023-03-31T18:23:56;2.70;;;0.80;;
54959;SDS011;40860;51.710;8.736;2023-03-31T18:27:59;4.78;;;2.13;;
54959;SDS011;40860;51.710;8.736;2023-03-31T18:32:02;2.33;;;0.80;;
54959;SDS011;40860;51.710;8.736;2023-03-31T18:36:07;1.80;;;1.00;;
54959;SDS011;40860;51.710;8.736;2023-03-31T18:40:14;2.95;;;1.00;;
54959;SDS011;40860;51.710;8.736;2023-03-31T18:44:17;3.90;;;1.10;;
54959;SDS011;40860;51.710;8.736;2023-03-31T18:48:21;1.42;;;0.90;;
54959;SDS011;40860;51.710;8.736;2023-03-31T18:52:26;4.18;;;1.40;;
54959;SDS011;40860;51.710;8.736;2023-03-31T18:56:30;3.05;;;1.13;;
54959;SDS011;40860;51.710;8.736;2023-03-31T19:00:33;2.10;;;1.10;;
54959;SDS011;40860;51.710;8.736;2023-03-31T19:04:37;3.15;;;1.25;;
54959;SDS011;40860;51.710;8.736;2023-03-31T19:08:41;4.32;;;2.05;;
54959;SDS011;40860;51.710;8.736;2023-03-31T19:12:45;1.65;;;0.80;;
54959;SDS011;40860;51.710;8.736;2023-03-31T19:16:48;3.58;;;0.90;;
54959;SDS011;40860;51.710;8.736;2023-03-31T19:20:51;2.58;;;1.20;;
54959;SDS011;40860;51.710;8.736;2023-03-31T19:24:56;2.25;;;0.93;;
54959;SDS011;40860;51.710;8.736;2023-03-31T19:29:00;5.50;;;1.58;;
54959;SDS011;40860;51.710;8.736;2023-03-31T19:33:04;3.33;;;1.05;;
54959;SDS011;40860;51.710;8.736;2023-03-31T19:37:07;2.70;;;1.02;;
54959;SDS011;40860;51.710;8.736;2023-03-31T19:41:14;5.00;;;0.95;;
54959;SDS011;40860;51.710;8.736;2023-03-31T19:45:18;3.45;;;1.60;;
54959;SDS011;40860;51.710;8.736;2023-03-31T19:49:21;1.48;;;0.73;;
54959;SDS011;40860;51.710;8.736;2023-03-31T19:53:25;1.58;;;0.90;;
54959;SDS011;40860;51.710;8.736;2023-03-31T19:57:29;1.75;;;1.00;;
54959;SDS011;40860;51.710;8.736;2023-03-31T20:01:33;3.67;;;0.98;;
54959;SDS011;40860;51.710;8.736;2023-03-31T20:05:36;2.28;;;1.15;;
54959;SDS011;40860;51.710;8.736;2023-03-31T20:09:39;3.20;;;1.02;;
54959;SDS011;40860;51.710;8.736;2023-03-31T20:13:44;3.67;;;1.15;;
54959;SDS011;40860;51.710;8.736;2023-03-31T20:17:48;3.35;;;1.40;;
54959;SDS011;40860;51.710;8.736;2023-03-31T20:21:56;2.50;;;1.10;;
54959;SDS011;40860;51.710;8.736;2023-03-31T20:26:02;2.42;;;1.00;;
54959;SDS011;40860;51.710;8.736;2023-03-31T20:30:10;1.90;;;0.88;;
54959;SDS011;40860;51.710;8.736;2023-03-31T20:34:16;3.13;;;1.10;;
54959;SDS011;40860;51.710;8.736;2023-03-31T20:38:27;3.30;;;0.95;;
54959;SDS011;40860;51.710;8.736;2023-03-31T20:42:45;3.85;;;1.20;;
54959;SDS011;40860;51.710;8.736;2023-03-31T20:46:53;3.15;;;1.00;;
54959;SDS011;40860;51.710;8.736;2023-03-31T20:51:01;6.10;;;1.77;;
54959;SDS011;40860;51.710;8.736;2023-03-31T20:55:04;2.08;;;1.13;;
54959;SDS011;40860;51.710;8.736;2023-03-31T20:59:13;4.57;;;2.08;;
54959;SDS011;40860;51.710;8.736;2023-03-31T21:03:21;3.97;;;1.55;;
54959;SDS011;40860;51.710;8.736;2023-03-31T21:07:24;3.83;;;1.08;;
54959;SDS011;40860;51.710;8.736;2023-03-31T21:11:27;3.25;;;1.23;;
54959;SDS011;40860;51.710;8.736;2023-03-31T21:15:30;2.05;;;1.10;;
54959;SDS011;40860;51.710;8.736;2023-03-31T21:19:34;2.85;;;1.17;;
54959;SDS011;40860;51.710;8.736;2023-03-31T21:23:37;3.05;;;1.30;;
54959;SDS011;40860;51.710;8.736;2023-03-31T21:27:40;2.65;;;0.85;;
54959;SDS011;40860;51.710;8.736;2023-03-31T21:31:43;4.05;;;1.00;;
54959;SDS011;40860;51.710;8.736;2023-03-31T21:35:48;1.48;;;0.68;;
54959;SDS011;40860;51.710;8.736;2023-03-31T21:39:52;3.72;;;1.00;;
54959;SDS011;40860;51.710;8.736;2023-03-31T21:43:55;2.55;;;0.88;;
54959;SDS011;40860;51.710;8.736;2023-03-31T21:48:03;2.40;;;1.13;;
54959;SDS011;40860;51.710;8.736;2023-03-31T21:52:08;3.30;;;0.93;;
54959;SDS011;40860;51.710;8.736;2023-03-31T21:56:11;1.20;;;0.63;;
54959;SDS011;40860;51.710;8.736;2023-03-31T22:00:14;2.60;;;0.90;;
54959;SDS011;40860;51.710;8.736;2023-03-31T22:04:18;1.95;;;0.57;;
54959;SDS011;40860;51.710;8.736;2023-03-31T22:08:22;1.63;;;0.50;;
54959;SDS011;40860;51.710;8.736;2023-03-31T22:12:27;3.17;;;0.73;;
54959;SDS011;40860;51.710;8.736;2023-03-31T22:16:31;2.95;;;0.63;;
54959;SDS011;40860;51.710;8.736;2023-03-31T22:20:44;3.15;;;0.60;;
54959;SDS011;40860;51.710;8.736;2023-03-31T22:24:48;2.72;;;0.70;;
54959;SDS011;40860;51.710;8.736;2023-03-31T22:28:53;2.47;;;0.70;;
54959;SDS011;40860;51.710;8.736;2023-03-31T22:32:58;0.45;;;0.35;;
54959;SDS011;40860;51.710;8.736;2023-03-31T22:37:02;1.25;;;0.38;;
54959;SDS011;40860;51.710;8.736;2023-03-31T22:41:06;2.67;;;0.52;;
54959;SDS011;40860;51.710;8.736;2023-03-31T22:45:12;2.33;;;0.60;;
54959;SDS011;40860;51.710;8.736;2023-03-31T22:49:15;1.38;;;0.70;;
54959;SDS011;40860;51.710;8.736;2023-03-31T22:53:18;2.08;;;0.50;;
54959;SDS011;40860;51.710;8.736;2023-03-31T22:57:24;2.53;;;0.65;;
54959;SDS011;40860;51.710;8.736;2023-03-31T23:01:30;1.95;;;0.45;;
54959;SDS011;40860;51.710;8.736;2023-03-31T23:05:33;2.97;;;0.80;;
54959;SDS011;40860;51.710;8.736;2023-03-31T23:09:36;1.40;;;0.47;;
54959;SDS011;40860;51.710;8.736;2023-03-31T23:13:41;2.13;;;0.45;;
54959;SDS011;40860;51.710;8.736;2023-03-31T23:17:43;1.65;;;0.55;;
54959;SDS011;40860;51.710;8.736;2023-03-31T23:21:46;0.57;;;0.40;;
54959;SDS011;40860;51.710;8.736;2023-03-31T23:25:52;3.08;;;0.50;;
54959;SDS011;40860;51.710;8.736;2023-03-31T23:29:56;0.95;;;0.32;;
54959;SDS011;40860;51.710;8.736;2023-03-31T23:33:59;1.38;;;0.50;;
54959;SDS011;40860;51.710;8.736;2023-03-31T23:38:02;1.88;;;0.50;;
54959;SDS011;40860;51.710;8.736;2023-03-31T23:42:05;0.98;;;0.30;;
54959;SDS011;40860;51.710;8.736;2023-03-31T23:46:09;0.93;;;0.40;;
54959;SDS011;40860;51.710;8.736;2023-03-31T23:50:13;0.65;;;0.30;;
54959;SDS011;40860;51.710;8.736;2023-03-31T23:54:16;1.80;;;0.50;;
54959;SDS011;40860;51.710;8.736;2023-03-31T23:58:18;1.42;;;0.40;;
